Bere Alston, United Kingdom
Current Conditions -  °F | °C
As of 5:20 PM on Friday 31 Oct 2014 (Local Time) from EGHQ Reporting Station
Broken Clouds Broken Clouds  
Wind Chill: 61°   Ceiling: 2400
Heat Index: 61°   Visibility: 6mi
Dew Point: 57°   Wind: 21mph
Humidity: 88%   Direction: 180°S
Pressure: 29.83"   Gusts: 35mph
Location:  50.48°N, 4.19°W
Report Text: EGHQ 311720Z 18018G30KT 9000 SCT010 BKN024 16/14 Q1010
Loading
Personal Weather Stations






























Interactive Weather Map
Tropical Storm Tracking
New forecast layout! Learn more

10-Day Weather Forecast

Advertisements
Track Severe Weather on mobile